Back to Top

Language: 

My Weather Underground Personal Weather Station Historical Data with Graphs...

Delerius Weather Station Historical Data
Daily Summary for January 4, 2015 Units:  Metric    English   Both
« Previous Day
Next Day »
Daily Weekly Monthly Yearly Custom
  High: Low: Average:
Temperature: 7.2 °C -1.3 °C 1.8 °C
Dew Point: 2.2 °C -2.9 °C -0.6 °C
Humidity: 95 % 69 % 85 %
Wind Speed: 11.3 km/h 0 km/h 1.8 km/h
Wind Gust: 14.5 km/h - -
Wind:- - SW
Pressure: 1033.1 hPa 1027.7 hPa -
Precipitation: 0 mm    
Historical Graphs
 
 
Tabular Data for January 4, 2015
Time Temperature Dew Point Pressure Wind Wind Speed Wind Gust Humidity Rainfall Rate (Hourly) solar Conditions
00:00 0.8 °C -1.6 °C 1028.3 hPa Calm   14.5 km/h 84 % 0 mm Wunderground v.1.15 W/m2
00:05 0.5 °C -1.7 °C 1028 hPa Calm   14.5 km/h 85 % 0 mm Wunderground v.1.15 W/m2
00:15 -0.1 °C -1.8 °C 1028 hPa WNW 3.2 km/h 3.2 km/h 88 % 0 mm Wunderground v.1.15 W/m2
00:20 -0.2 °C -1.9 °C 1028 hPa WNW 3.2 km/h 3.2 km/h 88 % 0 mm Wunderground v.1.15 W/m2
00:30 -0.3 °C -2 °C 1028 hPa Calm     88 % 0 mm Wunderground v.1.15 W/m2
00:35 -0.3 °C -2 °C 1028 hPa Calm     88 % 0 mm Wunderground v.1.15 W/m2
00:40 -0.2 °C -1.8 °C 1027.7 hPa Calm   3.2 km/h 89 % 0 mm Wunderground v.1.15 W/m2
00:45 -0.1 °C -1.8 °C 1027.7 hPa WNW 1.6 km/h 3.2 km/h 88 % 0 mm Wunderground v.1.15 W/m2
00:50 0.1 °C -1.7 °C 1027.7 hPa WNW 1.6 km/h 1.6 km/h 88 % 0 mm Wunderground v.1.15 W/m2
01:00 0.3 °C -1.7 °C 1028.7 hPa NW 3.2 km/h 6.4 km/h 86 % 0 mm Wunderground v.1.15 W/m2
01:05 0.6 °C -1.7 °C 1028.7 hPa WNW 4.8 km/h 8 km/h 85 % 0 mm Wunderground v.1.15 W/m2
01:10 0.6 °C -1.8 °C 1028.7 hPa WNW 1.6 km/h 1.6 km/h 84 % 0 mm Wunderground v.1.15 W/m2
01:15 0.6 °C -1.8 °C 1029 hPa Calm   4.8 km/h 84 % 0 mm Wunderground v.1.15 W/m2
01:20 0.4 °C -1.8 °C 1029 hPa WNW 3.2 km/h 8 km/h 85 % 0 mm Wunderground v.1.15 W/m2
01:25 0.3 °C -1.9 °C 1029 hPa WNW 4.8 km/h 8 km/h 85 % 0 mm Wunderground v.1.15 W/m2
01:35 0.6 °C -1.8 °C 1029 hPa WNW 4.8 km/h 8 km/h 84 % 0 mm Wunderground v.1.15 W/m2
01:40 0.3 °C -2.3 °C 1029 hPa WNW 1.6 km/h 1.6 km/h 83 % 0 mm Wunderground v.1.15 W/m2
01:45 -0.2 °C -2.4 °C 1029 hPa Calm   8 km/h 85 % 0 mm Wunderground v.1.15 W/m2
01:50 -0.4 °C -2.3 °C 1029 hPa Calm   8 km/h 87 % 0 mm Wunderground v.1.15 W/m2
01:55 -0.6 °C -2.3 °C 1029.3 hPa Calm   8 km/h 88 % 0 mm Wunderground v.1.15 W/m2
02:05 -0.7 °C -2.3 °C 1029.3 hPa Calm   8 km/h 89 % 0 mm Wunderground v.1.15 W/m2
02:10 -0.7 °C -2.4 °C 1029.3 hPa Calm   8 km/h 88 % 0 mm Wunderground v.1.15 W/m2
02:15 -0.7 °C -2.4 °C 1029.7 hPa Calm   8 km/h 88 % 0 mm Wunderground v.1.15 W/m2
02:20 -0.8 °C -2.6 °C 1029.7 hPa Calm   8 km/h 88 % 0 mm Wunderground v.1.15 W/m2
02:25 -0.8 °C -2.6 °C 1029.7 hPa Calm   8 km/h 88 % 0 mm Wunderground v.1.15 W/m2
02:30 -1 °C -2.7 °C 1029.7 hPa Calm   8 km/h 88 % 0 mm Wunderground v.1.15 W/m2
02:40 -1.3 °C -2.8 °C 1030 hPa Calm   8 km/h 90 % 0 mm Wunderground v.1.15 W/m2
02:45 -1.1 °C -2.6 °C 1030 hPa WNW 3.2 km/h 8 km/h 90 % 0 mm Wunderground v.1.15 W/m2
02:50 -0.8 °C -2.4 °C 1030 hPa WNW 4.8 km/h 8 km/h 89 % 0 mm Wunderground v.1.15 W/m2
02:55 -0.4 °C -2.1 °C 1030 hPa WNW 4.8 km/h 8 km/h 88 % 0 mm Wunderground v.1.15 W/m2
03:00 -0.2 °C -2.2 °C 1030 hPa WNW 3.2 km/h 3.2 km/h 86 % 0 mm Wunderground v.1.15 W/m2
03:10 0.1 °C -2.2 °C 1030 hPa WNW 1.6 km/h 8 km/h 85 % 0 mm Wunderground v.1.15 W/m2
03:15 0.2 °C -2.2 °C 1030 hPa WNW 1.6 km/h 8 km/h 84 % 0 mm Wunderground v.1.15 W/m2
03:20 0.3 °C -2.3 °C 1030 hPa WNW 3.2 km/h 8 km/h 83 % 0 mm Wunderground v.1.15 W/m2
03:30 0.3 °C -2.3 °C 1030.4 hPa WNW 1.6 km/h 1.6 km/h 83 % 0 mm Wunderground v.1.15 W/m2
03:35 0.3 °C -2.3 °C 1030.4 hPa WNW 1.6 km/h 3.2 km/h 83 % 0 mm Wunderground v.1.15 W/m2
03:40 0 °C -2.4 °C 1030 hPa WNW 1.6 km/h 1.6 km/h 84 % 0 mm Wunderground v.1.15 W/m2
03:50 -0.6 °C -2.4 °C 1030.4 hPa WNW 1.6 km/h 8 km/h 87 % 0 mm Wunderground v.1.15 W/m2
03:55 -0.1 °C -2.1 °C 1030.4 hPa WNW 4.8 km/h 8 km/h 86 % 0 mm Wunderground v.1.15 W/m2
04:00 0.6 °C -1.8 °C 1030.4 hPa NW 6.4 km/h 6.4 km/h 84 % 0 mm Wunderground v.1.15 W/m2
04:05 1.1 °C -1.7 °C 1030 hPa NW 6.4 km/h 8 km/h 82 % 0 mm Wunderground v.1.15 W/m2
04:10 0.9 °C -1.9 °C 1030 hPa NW 4.8 km/h 4.8 km/h 81 % 0 mm Wunderground v.1.15 W/m2
04:20 0.2 °C -2.6 °C 1030.4 hPa West 1.6 km/h 1.6 km/h 82 % 0 mm Wunderground v.1.15 W/m2
04:25 -0.2 °C -2.8 °C 1030.4 hPa West 1.6 km/h 8 km/h 83 % 0 mm Wunderground v.1.15 W/m2
04:30 -0.5 °C -2.9 °C 1030.4 hPa Calm   8 km/h 84 % 0 mm Wunderground v.1.15 W/m2
04:35 -0.7 °C -2.9 °C 1030.4 hPa Calm   8 km/h 85 % 0 mm Wunderground v.1.15 W/m2
04:40 -0.9 °C -2.9 °C 1030.4 hPa Calm   8 km/h 86 % 0 mm Wunderground v.1.15 W/m2
04:50 -1 °C -2.7 °C 1030.4 hPa Calm   8 km/h 88 % 0 mm Wunderground v.1.15 W/m2
04:55 -0.9 °C -2.7 °C 1030.4 hPa Calm   8 km/h 88 % 0 mm Wunderground v.1.15 W/m2
05:00 -0.9 °C -2.7 °C 1030.4 hPa Calm   8 km/h 88 % 0 mm Wunderground v.1.15 W/m2
05:05 -0.9 °C -2.7 °C 1030 hPa West 1.6 km/h 8 km/h 88 % 0 mm Wunderground v.1.15 W/m2
05:10 -1 °C -2.6 °C 1030 hPa West 1.6 km/h 8 km/h 89 % 0 mm Wunderground v.1.15 W/m2
05:15 -1 °C -2.6 °C 1030 hPa West 1.6 km/h 8 km/h 89 % 0 mm Wunderground v.1.15 W/m2
05:25 -1 °C -2.6 °C 1030 hPa Calm   8 km/h 89 % 0 mm Wunderground v.1.15 W/m2
05:30 -1.1 °C -2.6 °C 1030.4 hPa Calm   8 km/h 89 % 0 mm Wunderground v.1.15 W/m2
05:35 -1.1 °C -2.6 °C 1030.4 hPa Calm   8 km/h 90 % 0 mm Wunderground v.1.15 W/m2
05:40 -1.1 °C -2.3 °C 1030.4 hPa Calm   8 km/h 91 % 0 mm Wunderground v.1.15 W/m2
05:45 -0.8 °C -2.1 °C 1030.4 hPa West 1.6 km/h 8 km/h 91 % 0 mm Wunderground v.1.15 W/m2
05:55 -0.3 °C -1.9 °C 1030.4 hPa West 4.8 km/h 8 km/h 89 % 0 mm Wunderground v.1.15 W/m2
06:00 -0.3 °C -2 °C 1030.7 hPa West 1.6 km/h 1.6 km/h 88 % 0 mm Wunderground v.1.15 W/m2
06:05 -0.2 °C -1.8 °C 1030.7 hPa Calm   8 km/h 89 % 0 mm Wunderground v.1.15 W/m2
06:10 -0.1 °C -1.7 °C 1030.7 hPa West 1.6 km/h 8 km/h 89 % 0 mm Wunderground v.1.15 W/m2
06:15 0 °C -1.6 °C 1030.7 hPa West 4.8 km/h 8 km/h 89 % 0 mm Wunderground v.1.15 W/m2
06:20 0.2 °C -1.6 °C 1030.7 hPa West 4.8 km/h 4.8 km/h 88 % 0 mm Wunderground v.1.15 W/m2
06:30 -0.3 °C -2.3 °C 1031 hPa Calm   8 km/h 86 % 0 mm Wunderground v.1.15 W/m2
06:35 -0.6 °C -2.5 °C 1030.7 hPa Calm   8 km/h 87 % 0 mm Wunderground v.1.15 W/m2
06:40 -0.8 °C -2.5 °C 1030.7 hPa Calm   8 km/h 88 % 0 mm Wunderground v.1.15 W/m2
06:45 -0.8 °C -2.4 °C 1031 hPa Calm   8 km/h 89 % 0 mm Wunderground v.1.15 W/m2
06:50 -0.9 °C -2.6 °C 1031 hPa Calm   8 km/h 89 % 0 mm Wunderground v.1.15 W/m2
07:00 -0.5 °C -1.9 °C 1031.4 hPa Calm   8 km/h 90 % 0 mm Wunderground v.1.15 W/m2
07:05 -0.4 °C -1.8 °C 1031 hPa Calm   8 km/h 90 % 0 mm Wunderground v.1.15 W/m2
07:10 -0.2 °C -1.7 °C 1031 hPa Calm   8 km/h 90 % 0 mm Wunderground v.1.15 W/m2
07:20 0 °C -1.6 °C 1031.4 hPa Calm   8 km/h 89 % 0 mm Wunderground v.1.15 W/m2
07:25 -0.1 °C -1.8 °C 1031.4 hPa Calm   8 km/h 88 % 0 mm Wunderground v.1.15 W/m2
07:30 0 °C -1.6 °C 1031.4 hPa Calm   8 km/h 89 % 0 mm Wunderground v.1.15 W/m2
07:40 0 °C -1.8 °C 1031.4 hPa Calm   8 km/h 88 % 0 mm Wunderground v.1.15 W/m2
07:45 -0.1 °C -1.8 °C 1031.4 hPa Calm   8 km/h 88 % 0 mm Wunderground v.1.15 W/m2
07:50 -0.2 °C -1.9 °C 1031.7 hPa Calm   8 km/h 88 % 0 mm Wunderground v.1.15 W/m2
07:55 -0.2 °C -1.8 °C 1031.7 hPa Calm   8 km/h 89 % 0 mm Wunderground v.1.15 W/m2
08:00 -0.2 °C -1.8 °C 1031.7 hPa Calm   8 km/h 89 % 0 mm Wunderground v.1.15 W/m2
08:10 -0.2 °C -1.8 °C 1032.1 hPa Calm   8 km/h 89 % 0 mm Wunderground v.1.15 W/m2
08:15 -0.2 °C -1.8 °C 1032.1 hPa Calm   8 km/h 89 % 0 mm Wunderground v.1.15 W/m2
08:20 -0.1 °C -1.7 °C 1032.1 hPa Calm   8 km/h 89 % 0 mm Wunderground v.1.15 W/m2
08:25 -0.1 °C -1.8 °C 1032.1 hPa Calm   8 km/h 88 % 0 mm Wunderground v.1.15 W/m2
08:30 -0.2 °C -1.9 °C 1032.4 hPa West 1.6 km/h 1.6 km/h 88 % 0 mm Wunderground v.1.15 W/m2
08:40 -0.3 °C -1.9 °C 1032.4 hPa Calm   8 km/h 89 % 0 mm Wunderground v.1.15 W/m2
08:45 -0.1 °C -1.7 °C 1032.4 hPa Calm   8 km/h 89 % 0 mm Wunderground v.1.15 W/m2
08:50 0.2 °C -1.4 °C 1032.7 hPa Calm   8 km/h 89 % 0 mm Wunderground v.1.15 W/m2
08:55 0.3 °C -1.4 °C 1032.7 hPa Calm   8 km/h 88 % 0 mm Wunderground v.1.15 W/m2
09:00 0.4 °C -1.3 °C 1032.7 hPa Calm   8 km/h 88 % 0 mm Wunderground v.1.15 W/m2
09:05 0.1 °C -1.9 °C 1032.7 hPa Calm   8 km/h 86 % 0 mm Wunderground v.1.15 W/m2
09:15 -0.1 °C -1.7 °C 1032.4 hPa Calm   8 km/h 89 % 0 mm Wunderground v.1.15 W/m2
09:20 0.1 °C -1.3 °C 1032.7 hPa Calm   8 km/h 90 % 0 mm Wunderground v.1.15 W/m2
09:25 0.4 °C -1.2 °C 1032.7 hPa Calm   8 km/h 89 % 0 mm Wunderground v.1.15 W/m2
09:30 0.5 °C -1.3 °C 1032.7 hPa Calm   8 km/h 88 % 0 mm Wunderground v.1.15 W/m2
09:35 0.6 °C -1.2 °C 1032.7 hPa Calm   8 km/h 88 % 0 mm Wunderground v.1.15 W/m2
09:45 0.8 °C -0.9 °C 1032.7 hPa Calm   8 km/h 88 % 0 mm Wunderground v.1.15 W/m2
09:50 0.8 °C -1.1 °C 1032.7 hPa Calm   8 km/h 87 % 0 mm Wunderground v.1.15 W/m2
09:55 0.8 °C -0.9 °C 1032.7 hPa Calm   8 km/h 88 % 0 mm Wunderground v.1.15 W/m2
10:00 1.1 °C -0.5 °C 1032.7 hPa Calm   8 km/h 89 % 0 mm Wunderground v.1.15 W/m2
10:05 1.4 °C -0.3 °C 1032.7 hPa Calm   8 km/h 88 % 0 mm Wunderground v.1.15 W/m2
10:10 1.8 °C 0.1 °C 1032.7 hPa Calm   8 km/h 88 % 0 mm Wunderground v.1.15 W/m2
10:20 2.6 °C 0.5 °C 1032.7 hPa Calm   8 km/h 86 % 0 mm Wunderground v.1.15 W/m2
10:25 2.9 °C 0.7 °C 1032.7 hPa Calm   8 km/h 85 % 0 mm Wunderground v.1.15 W/m2
10:30 3.1 °C 0.7 °C 1032.7 hPa Calm   8 km/h 84 % 0 mm Wunderground v.1.15 W/m2
10:35 3.3 °C 0.7 °C 1032.7 hPa Calm   8 km/h 83 % 0 mm Wunderground v.1.15 W/m2
10:45 3.6 °C 0.5 °C 1033.1 hPa Calm   8 km/h 80 % 0 mm Wunderground v.1.15 W/m2
10:50 3.8 °C 1.1 °C 1032.7 hPa Calm   8 km/h 82 % 0 mm Wunderground v.1.15 W/m2
10:55 4 °C 1.2 °C 1032.7 hPa Calm   8 km/h 82 % 0 mm Wunderground v.1.15 W/m2
11:05 4.4 °C 1.2 °C 1032.7 hPa Calm   8 km/h 80 % 0 mm Wunderground v.1.15 W/m2
11:10 4.5 °C 1.2 °C 1033.1 hPa Calm   8 km/h 79 % 0 mm Wunderground v.1.15 W/m2
11:15 4.7 °C 1.3 °C 1033.1 hPa Calm   8 km/h 79 % 0 mm Wunderground v.1.15 W/m2
11:25 4.9 °C 2.1 °C 1033.1 hPa Calm   8 km/h 82 % 0 mm Wunderground v.1.15 W/m2
11:30 4.9 °C 1.9 °C 1033.1 hPa Calm   8 km/h 81 % 0 mm Wunderground v.1.15 W/m2
11:35 5.2 °C 2.2 °C 1032.7 hPa Calm   8 km/h 81 % 0 mm Wunderground v.1.15 W/m2
11:40 5.1 °C 1.6 °C 1032.7 hPa Calm   8 km/h 78 % 0 mm Wunderground v.1.15 W/m2
11:45 5.2 °C 1.7 °C 1032.7 hPa Calm   8 km/h 78 % 0 mm Wunderground v.1.15 W/m2
11:50 5.5 °C 1.4 °C 1032.7 hPa Calm   8 km/h 75 % 0 mm Wunderground v.1.15 W/m2
12:00 5.8 °C 1.5 °C 1032.7 hPa West 1.6 km/h 1.6 km/h 74 % 0 mm Wunderground v.1.15 W/m2
12:05 5.9 °C 1.8 °C 1032.7 hPa West 1.6 km/h 3.2 km/h 75 % 0 mm Wunderground v.1.15 W/m2
12:10 5.9 °C 1.4 °C 1032.7 hPa WSW 1.6 km/h 8 km/h 73 % 0 mm Wunderground v.1.15 W/m2
12:15 6 °C 1.5 °C 1032.7 hPa WSW 4.8 km/h 8 km/h 73 % 0 mm Wunderground v.1.15 W/m2
12:20 6 °C 1.5 °C 1032.7 hPa WSW 6.4 km/h 8 km/h 73 % 0 mm Wunderground v.1.15 W/m2
12:30 6.2 °C 1.6 °C 1032.4 hPa WSW 6.4 km/h 6.4 km/h 72 % 0 mm Wunderground v.1.15 W/m2
12:35 6.4 °C 1.7 °C 1032.4 hPa West 6.4 km/h 8 km/h 72 % 0 mm Wunderground v.1.15 W/m2
12:40 6.5 °C 2 °C 1032.4 hPa West 4.8 km/h 4.8 km/h 73 % 0 mm Wunderground v.1.15 W/m2
12:45 6.6 °C 1.9 °C 1032.4 hPa West 4.8 km/h 6.4 km/h 72 % 0 mm Wunderground v.1.15 W/m2
12:50 6.6 °C 1.9 °C 1032.4 hPa WSW 6.4 km/h 8 km/h 72 % 0 mm Wunderground v.1.15 W/m2
12:55 6.6 °C 1.7 °C 1032.1 hPa SW 8 km/h 8 km/h 71 % 0 mm Wunderground v.1.15 W/m2
13:05 6.7 °C 2 °C 1032.1 hPa WSW 9.7 km/h 9.7 km/h 72 % 0 mm Wunderground v.1.15 W/m2
13:10 6.7 °C 1.8 °C 1032.1 hPa WSW 9.7 km/h 9.7 km/h 71 % 0 mm Wunderground v.1.15 W/m2
13:15 6.8 °C 1.9 °C 1032.1 hPa SW 8 km/h 11.3 km/h 71 % 0 mm Wunderground v.1.15 W/m2
13:20 6.8 °C 1.9 °C 1031.7 hPa WSW 6.4 km/h 8 km/h 71 % 0 mm Wunderground v.1.15 W/m2
13:25 6.8 °C 1.7 °C 1031.7 hPa SSW 8 km/h 9.7 km/h 70 % 0 mm Wunderground v.1.15 W/m2
13:35 7.1 °C 2.2 °C 1031.4 hPa SW 4.8 km/h 8 km/h 71 % 0 mm Wunderground v.1.15 W/m2
13:40 7.2 °C 2.1 °C 1031.4 hPa SSW 4.8 km/h 8 km/h 70 % 0 mm Wunderground v.1.15 W/m2
13:45 7.2 °C 2.1 °C 1031.4 hPa SW 4.8 km/h 8 km/h 70 % 0 mm Wunderground v.1.15 W/m2
13:50 7.2 °C 1.8 °C 1031 hPa SW 4.8 km/h 8 km/h 69 % 0 mm Wunderground v.1.15 W/m2
13:55 7.2 °C 1.9 °C 1031 hPa SSW 4.8 km/h 8 km/h 69 % 0 mm Wunderground v.1.15 W/m2
14:00 7.2 °C 1.8 °C 1031 hPa SW 6.4 km/h 8 km/h 69 % 0 mm Wunderground v.1.15 W/m2
14:10 7.2 °C 1.8 °C 1031 hPa SSW 6.4 km/h 8 km/h 69 % 0 mm Wunderground v.1.15 W/m2
14:15 7.1 °C 1.7 °C 1031.4 hPa SSW 8 km/h 8 km/h 69 % 0 mm Wunderground v.1.15 W/m2
14:20 6.8 °C 1.6 °C 1031.4 hPa SSW 9.7 km/h 14.5 km/h 69 % 0 mm Wunderground v.1.15 W/m2
14:25 6.7 °C 1.6 °C 1031.4 hPa SSW 9.7 km/h 14.5 km/h 70 % 0 mm Wunderground v.1.15 W/m2
14:30 6.5 °C 1.6 °C 1031 hPa SW 11.3 km/h 11.3 km/h 71 % 0 mm Wunderground v.1.15 W/m2
14:40 6.3 °C 1.6 °C 1031 hPa SSW 8 km/h 14.5 km/h 72 % 0 mm Wunderground v.1.15 W/m2
14:45 6.2 °C 1.5 °C 1031 hPa SW 9.7 km/h 14.5 km/h 72 % 0 mm Wunderground v.1.15 W/m2
14:50 6.1 °C 1.6 °C 1031 hPa SSW 9.7 km/h 9.7 km/h 73 % 0 mm Wunderground v.1.15 W/m2
14:55 6 °C 1.7 °C 1031 hPa SSW 6.4 km/h 9.7 km/h 74 % 0 mm Wunderground v.1.15 W/m2
15:00 5.9 °C 1.7 °C 1030.7 hPa SW 4.8 km/h 8 km/h 74 % 0 mm Wunderground v.1.15 W/m2
15:05 5.8 °C 1.5 °C 1031 hPa SW 6.4 km/h 8 km/h 74 % 0 mm Wunderground v.1.15 W/m2
15:15 5.6 °C 1.4 °C 1030.7 hPa SW 8 km/h 8 km/h 75 % 0 mm Wunderground v.1.15 W/m2
15:20 5.3 °C 1.4 °C 1031 hPa WSW 8 km/h 8 km/h 76 % 0 mm Wunderground v.1.15 W/m2
15:25 5.2 °C 1.3 °C 1031 hPa WSW 6.4 km/h 8 km/h 76 % 0 mm Wunderground v.1.15 W/m2
15:30 5.2 °C 1.4 °C 1031 hPa SW 6.4 km/h 6.4 km/h 77 % 0 mm Wunderground v.1.15 W/m2
15:35 5.1 °C 1.4 °C 1031 hPa SW 3.2 km/h 8 km/h 77 % 0 mm Wunderground v.1.15 W/m2
15:45 5 °C 1.3 °C 1030.7 hPa Calm   8 km/h 77 % 0 mm Wunderground v.1.15 W/m2
15:50 4.9 °C 1.2 °C 1030.7 hPa Calm   8 km/h 77 % 0 mm Wunderground v.1.15 W/m2
15:55 4.8 °C 1.1 °C 1030.7 hPa Calm   8 km/h 77 % 0 mm Wunderground v.1.15 W/m2
16:00 4.7 °C 1.1 °C 1030.7 hPa WNW 1.6 km/h 8 km/h 77 % 0 mm Wunderground v.1.15 W/m2
16:05 4.7 °C 1.2 °C 1031 hPa WNW 1.6 km/h 8 km/h 78 % 0 mm Wunderground v.1.15 W/m2
16:10 4.6 °C 1.1 °C 1030.7 hPa Calm   8 km/h 78 % 0 mm Wunderground v.1.15 W/m2
16:20 4.3 °C 1 °C 1030.7 hPa Calm   8 km/h 79 % 0 mm Wunderground v.1.15 W/m2
16:25 4.2 °C 0.9 °C 1030.7 hPa Calm   8 km/h 79 % 0 mm Wunderground v.1.15 W/m2
16:30 4.1 °C 0.9 °C 1030.7 hPa Calm   8 km/h 80 % 0 mm Wunderground v.1.15 W/m2
16:35 4.1 °C 0.9 °C 1030.7 hPa Calm   8 km/h 80 % 0 mm Wunderground v.1.15 W/m2
16:40 3.8 °C 0.9 °C 1030.7 hPa Calm   8 km/h 81 % 0 mm Wunderground v.1.15 W/m2
16:50 3.7 °C 0.7 °C 1030.7 hPa Calm   8 km/h 81 % 0 mm Wunderground v.1.15 W/m2
16:55 3.6 °C 0.8 °C 1030.7 hPa Calm   8 km/h 82 % 0 mm Wunderground v.1.15 W/m2
17:00 3.6 °C 0.8 °C 1030.7 hPa Calm   8 km/h 82 % 0 mm Wunderground v.1.15 W/m2
17:05 3.4 °C 0.6 °C 1030.7 hPa Calm   8 km/h 82 % 0 mm Wunderground v.1.15 W/m2
17:10 3.3 °C 0.5 °C 1030.7 hPa Calm   8 km/h 82 % 0 mm Wunderground v.1.15 W/m2
17:15 3.1 °C 0.4 °C 1030.7 hPa Calm   8 km/h 83 % 0 mm Wunderground v.1.15 W/m2
17:25 2.8 °C 0.4 °C 1030.4 hPa Calm   8 km/h 84 % 0 mm Wunderground v.1.15 W/m2
17:30 2.8 °C 0.3 °C 1030.7 hPa Calm   8 km/h 84 % 0 mm Wunderground v.1.15 W/m2
17:35 2.8 °C 0.3 °C 1030.7 hPa Calm   8 km/h 84 % 0 mm Wunderground v.1.15 W/m2
17:40 2.8 °C 0.3 °C 1030.7 hPa Calm   8 km/h 84 % 0 mm Wunderground v.1.15 W/m2
17:45 2.9 °C 0.3 °C 1030.4 hPa WNW 1.6 km/h 8 km/h 83 % 0 mm Wunderground v.1.15 W/m2
17:55 3 °C 0.2 °C 1030.4 hPa NW 1.6 km/h 8 km/h 82 % 0 mm Wunderground v.1.15 W/m2
18:00 2.9 °C 0.3 °C 1030.4 hPa Calm   8 km/h 83 % 0 mm Wunderground v.1.15 W/m2
18:05 2.8 °C 0.1 °C 1030.4 hPa Calm   8 km/h 82 % 0 mm Wunderground v.1.15 W/m2
18:10 2.7 °C 0.1 °C 1030.4 hPa Calm   8 km/h 83 % 0 mm Wunderground v.1.15 W/m2
18:20 2.6 °C 0.1 °C 1030.4 hPa Calm   8 km/h 84 % 0 mm Wunderground v.1.15 W/m2
18:25 2.6 °C -0.1 °C 1030.4 hPa Calm   8 km/h 83 % 0 mm Wunderground v.1.15 W/m2
18:30 2.5 °C 0.1 °C 1030.4 hPa ENE 1.6 km/h 8 km/h 84 % 0 mm Wunderground v.1.15 W/m2
18:40 2.4 °C -0.1 °C 1030.4 hPa ENE 1.6 km/h 8 km/h 84 % 0 mm Wunderground v.1.15 W/m2
18:45 2.3 °C -0.2 °C 1030.4 hPa ENE 1.6 km/h 8 km/h 84 % 0 mm Wunderground v.1.15 W/m2
18:50 2.2 °C -0.2 °C 1030 hPa Calm   8 km/h 84 % 0 mm Wunderground v.1.15 W/m2
18:55 2.1 °C -0.3 °C 1030 hPa Calm   8 km/h 84 % 0 mm Wunderground v.1.15 W/m2
19:05 1.7 °C -0.6 °C 1030 hPa Calm   8 km/h 85 % 0 mm Wunderground v.1.15 W/m2
19:10 1.6 °C -0.6 °C 1030 hPa Calm   8 km/h 86 % 0 mm Wunderground v.1.15 W/m2
19:15 1.5 °C -0.4 °C 1030 hPa Calm   8 km/h 87 % 0 mm Wunderground v.1.15 W/m2
19:20 1.5 °C -0.4 °C 1030 hPa Calm   8 km/h 87 % 0 mm Wunderground v.1.15 W/m2
19:25 1.4 °C -0.3 °C 1030 hPa Calm   8 km/h 88 % 0 mm Wunderground v.1.15 W/m2
19:35 1.3 °C -0.7 °C 1030 hPa Calm   8 km/h 87 % 0 mm Wunderground v.1.15 W/m2
19:40 0.9 °C -1 °C 1029.7 hPa Calm   8 km/h 87 % 0 mm Wunderground v.1.15 W/m2
19:45 0.7 °C -1.1 °C 1029.7 hPa Calm   8 km/h 88 % 0 mm Wunderground v.1.15 W/m2
19:50 0.4 °C -1.2 °C 1029.7 hPa Calm   8 km/h 89 % 0 mm Wunderground v.1.15 W/m2
19:55 0.3 °C -1.1 °C 1029.7 hPa Calm   8 km/h 90 % 0 mm Wunderground v.1.15 W/m2
20:00 0.3 °C -1 °C 1029.7 hPa Calm   8 km/h 91 % 0 mm Wunderground v.1.15 W/m2
20:10 0.6 °C -0.6 °C 1029.7 hPa Calm   8 km/h 92 % 0 mm Wunderground v.1.15 W/m2
20:15 0.7 °C -0.6 °C 1029.7 hPa Calm   8 km/h 91 % 0 mm Wunderground v.1.15 W/m2
20:20 0.8 °C -0.4 °C 1029.7 hPa Calm   8 km/h 91 % 0 mm Wunderground v.1.15 W/m2
20:25 0.9 °C -0.4 °C 1029.7 hPa Calm   8 km/h 91 % 0 mm Wunderground v.1.15 W/m2
20:30 0.6 °C -1 °C 1029.7 hPa Calm   8 km/h 89 % 0 mm Wunderground v.1.15 W/m2
20:40 -0.2 °C -1.8 °C 1029.7 hPa Calm   8 km/h 89 % 0 mm Wunderground v.1.15 W/m2
20:45 -0.1 °C -1.3 °C 1029.7 hPa ENE 1.6 km/h 8 km/h 92 % 0 mm Wunderground v.1.15 W/m2
20:50 -0.3 °C -1.6 °C 1029.7 hPa ENE 1.6 km/h 1.6 km/h 91 % 0 mm Wunderground v.1.15 W/m2
20:55 -0.6 °C -1.8 °C 1029.7 hPa Calm   8 km/h 91 % 0 mm Wunderground v.1.15 W/m2
21:00 -0.7 °C -1.8 °C 1029.7 hPa Calm   8 km/h 92 % 0 mm Wunderground v.1.15 W/m2
21:05 -0.9 °C -2.2 °C 1029.7 hPa Calm   8 km/h 91 % 0 mm Wunderground v.1.15 W/m2
21:10 -1 °C -2 °C 1029.7 hPa Calm   8 km/h 93 % 0 mm Wunderground v.1.15 W/m2
21:15 -1 °C -2 °C 1029.7 hPa Calm   8 km/h 93 % 0 mm Wunderground v.1.15 W/m2
21:20 -0.9 °C -1.8 °C 1029.7 hPa Calm   8 km/h 94 % 0 mm Wunderground v.1.15 W/m2
21:25 -0.9 °C -1.7 °C 1029.7 hPa Calm   8 km/h 94 % 0 mm Wunderground v.1.15 W/m2
21:35 -0.7 °C -1.6 °C 1029.7 hPa Calm   8 km/h 94 % 0 mm Wunderground v.1.15 W/m2
21:40 -0.6 °C -1.4 °C 1029.7 hPa Calm   8 km/h 94 % 0 mm Wunderground v.1.15 W/m2
21:45 -0.4 °C -1.3 °C 1029.7 hPa Calm   8 km/h 94 % 0 mm Wunderground v.1.15 W/m2
21:50 -0.2 °C -0.9 °C 1029.7 hPa Calm   8 km/h 95 % 0 mm Wunderground v.1.15 W/m2
21:55 0.1 °C -0.7 °C 1029.3 hPa South 1.6 km/h 8 km/h 95 % 0 mm Wunderground v.1.15 W/m2
22:00 0.3 °C -0.4 °C 1029.3 hPa NE 1.6 km/h 1.6 km/h 95 % 0 mm Wunderground v.1.15 W/m2
22:05 0.5 °C -0.5 °C 1029.7 hPa NE 1.6 km/h 8 km/h 93 % 0 mm Wunderground v.1.15 W/m2
22:15 0.2 °C -0.8 °C 1029.3 hPa ENE 1.6 km/h 8 km/h 93 % 0 mm Wunderground v.1.15 W/m2
22:20 0.3 °C -0.5 °C 1029.7 hPa ENE 1.6 km/h 8 km/h 94 % 0 mm Wunderground v.1.15 W/m2
22:25 0.7 °C -0.1 °C 1029.3 hPa ENE 3.2 km/h 8 km/h 94 % 0 mm Wunderground v.1.15 W/m2
22:30 0.6 °C -0.6 °C 1029.3 hPa ENE 1.6 km/h 1.6 km/h 92 % 0 mm Wunderground v.1.15 W/m2
22:35 0.6 °C -0.4 °C 1029.3 hPa Calm   8 km/h 93 % 0 mm Wunderground v.1.15 W/m2
22:40 0.6 °C -0.4 °C 1029.3 hPa Calm   8 km/h 93 % 0 mm Wunderground v.1.15 W/m2
22:50 0.3 °C -0.7 °C 1029 hPa WNW 1.6 km/h 8 km/h 93 % 0 mm Wunderground v.1.15 W/m2
22:55 0.4 °C -0.4 °C 1029 hPa ENE 4.8 km/h 8 km/h 94 % 0 mm Wunderground v.1.15 W/m2
23:00 0.7 °C -0.2 °C 1029 hPa ENE 4.8 km/h 4.8 km/h 94 % 0 mm Wunderground v.1.15 W/m2
23:05 0.7 °C -0.1 °C 1029 hPa ENE 1.6 km/h 8 km/h 94 % 0 mm Wunderground v.1.15 W/m2
23:10 0.8 °C 0 °C 1029 hPa ENE 1.6 km/h 8 km/h 94 % 0 mm Wunderground v.1.15 W/m2
23:20 0.9 °C 0.1 °C 1029 hPa SE 1.6 km/h 8 km/h 94 % 0 mm Wunderground v.1.15 W/m2
23:25 1 °C 0.2 °C 1029 hPa ESE 1.6 km/h 8 km/h 94 % 0 mm Wunderground v.1.15 W/m2
23:30 1.2 °C 0.3 °C 1029 hPa Calm   8 km/h 94 % 0 mm Wunderground v.1.15 W/m2
23:35 1.2 °C 0.4 °C 1028.7 hPa Calm   8 km/h 94 % 0 mm Wunderground v.1.15 W/m2
23:40 1.3 °C 0.4 °C 1028.7 hPa Calm   8 km/h 94 % 0 mm Wunderground v.1.15 W/m2
23:45 1.4 °C 0.6 °C 1028.7 hPa Calm   8 km/h 94 % 0 mm Wunderground v.1.15 W/m2
23:55 1.6 °C 0.7 °C 1028.7 hPa ESE 1.6 km/h 8 km/h 94 % 0 mm Wunderground v.1.15 W/m2
Delerius-Weather
Compliments of Weather Underground - 2 mb

Data updates at regular intervals.